Time;durP1;ratioP1;P1;durP2;ratioP2;P2;SDS_P1;SDS_P2;PMS_P1;PMS_P2;Temp;Humidity;BMP_temperature;BMP_pressure;BME280_temperature;BME280_humidity;BME280_pressure;Samples;Min_cycle;Max_cycle;Signal;HPM_P1;HPM_P2
2023/02/02 00:00:21;;;;;;;12.30;5.30;;;;;;;4.41;100.00;99534.64;187709;1231;43601;-71
2023/02/02 00:04:43;;;;;;;7.10;2.90;;;;;;;4.46;100.00;99539.11;187827;1230;43687;-71
2023/02/02 00:08:45;;;;;;;6.10;3.40;;;;;;;4.45;100.00;99528.77;187802;1231;43812;-70
2023/02/02 00:12:47;;;;;;;3.90;2.50;;;;;;;4.43;100.00;99525.77;187663;1231;43642;-71
2023/02/02 00:16:53;;;;;;;12.20;2.00;;;;;;;4.39;100.00;99524.61;188112;1231;59163;-70
2023/02/02 00:20:57;;;;;;;6.30;2.60;;;;;;;4.38;100.00;99519.94;187796;1230;43596;-71
2023/02/02 00:24:58;;;;;;;3.50;1.70;;;;;;;4.39;99.89;99510.20;188131;1230;43606;-70
2023/02/02 00:29:56;;;;;;;6.30;3.10;;;;;;;4.42;99.39;99508.80;188106;1229;43093;-70
2023/02/02 00:33:58;;;;;;;6.60;2.80;;;;;;;4.48;98.71;99502.95;188083;1231;42923;-70
2023/02/02 00:38:36;;;;;;;5.40;2.50;;;;;;;4.50;98.67;99506.70;188094;1229;57988;-71
2023/02/02 00:42:38;;;;;;;8.50;3.90;;;;;;;4.50;98.29;99504.38;188119;1230;43064;-70
2023/02/02 00:46:41;;;;;;;4.30;2.40;;;;;;;4.50;97.78;99508.05;187818;1230;42883;-71
2023/02/02 00:50:42;;;;;;;10.60;3.60;;;;;;;4.54;97.75;99503.80;187785;1229;43044;-70
2023/02/02 00:54:44;;;;;;;7.20;2.10;;;;;;;4.55;97.18;99527.44;188124;1230;43680;-70
2023/02/02 00:59:48;;;;;;;7.10;2.80;;;;;;;4.60;97.02;99521.99;187896;1231;57892;-70
2023/02/02 01:03:50;;;;;;;5.40;2.40;;;;;;;4.64;96.38;99521.73;188099;1229;43049;-70
2023/02/02 01:08:17;;;;;;;7.40;2.10;;;;;;;4.65;95.86;99521.30;187767;1231;43632;-70
2023/02/02 01:12:19;;;;;;;3.60;1.50;;;;;;;4.67;95.56;99523.45;188175;1229;43775;-70
2023/02/02 01:16:23;;;;;;;11.00;3.40;;;;;;;4.65;95.09;99514.27;187723;1230;43675;-70
2023/02/02 01:20:25;;;;;;;6.40;2.40;;;;;;;4.62;94.47;99524.29;187846;1230;57840;-69
2023/02/02 01:30:08;;;;;;;3.20;2.10;;;;;;;4.70;93.53;99511.61;188162;1231;42919;-70
2023/02/02 01:34:14;;;;;;;5.60;3.10;;;;;;;4.74;93.52;99505.90;187826;1230;42985;-70
2023/02/02 01:38:16;;;;;;;5.80;2.80;;;;;;;4.73;92.97;99494.19;187712;1230;43673;-69
2023/02/02 01:42:30;;;;;;;4.10;1.80;;;;;;;4.76;93.41;99497.55;187798;1230;58176;-69
2023/02/02 01:46:36;;;;;;;5.50;2.10;;;;;;;4.78;93.46;99491.75;187926;1230;43614;-69
2023/02/02 01:50:38;;;;;;;10.60;3.10;;;;;;;4.79;93.22;99485.17;187781;1230;43626;-68
2023/02/02 01:54:48;;;;;;;5.60;2.10;;;;;;;4.78;93.46;99505.80;188132;1230;43589;-69
2023/02/02 01:58:50;;;;;;;7.90;3.50;;;;;;;4.83;93.54;99495.79;187817;1229;42915;-70
2023/02/02 02:02:55;;;;;;;3.40;1.50;;;;;;;4.84;93.41;99490.30;188182;1229;59064;-70
2023/02/02 02:07:24;;;;;;;6.80;2.70;;;;;;;4.82;93.91;99484.60;187764;1230;43793;-69
2023/02/02 02:11:26;;;;;;;10.10;2.80;;;;;;;4.84;93.49;99483.95;188124;1233;42961;-71
2023/02/02 02:16:18;;;;;;;9.40;3.30;;;;;;;4.80;93.70;99486.50;188007;1230;43626;-69
2023/02/02 02:30:56;;;;;;;11.00;2.80;;;;;;;4.89;92.71;99488.38;188114;1230;43324;-69
2023/02/02 02:44:54;;;;;;;8.40;3.30;;;;;;;4.91;91.79;99475.55;187765;1232;42968;-68
2023/02/02 02:48:59;;;;;;;10.80;2.70;;;;;;;4.94;91.27;99469.95;187735;1231;59267;-69
2023/02/02 02:53:08;;;;;;;15.30;4.50;;;;;;;4.94;91.59;99456.20;187662;1232;43759;-69
2023/02/02 02:57:31;;;;;;;9.30;3.40;;;;;;;4.91;90.79;99453.08;187368;1230;43581;-68
2023/02/02 03:01:43;;;;;;;5.10;2.50;;;;;;;4.92;90.50;99454.93;187838;1230;43681;-71
2023/02/02 03:10:42;;;;;;;8.60;4.20;;;;;;;4.93;89.32;99434.84;187628;1230;58102;-68
2023/02/02 03:15:36;;;;;;;3.40;2.60;;;;;;;5.00;89.23;99430.68;187591;1231;43726;-69
2023/02/02 03:19:38;;;;;;;12.40;4.90;;;;;;;4.99;88.76;99420.35;187779;1231;43364;-69
2023/02/02 03:23:48;;;;;;;10.00;3.30;;;;;;;4.97;89.30;99426.41;187798;1231;43749;-69
2023/02/02 03:37:42;;;;;;;6.10;2.70;;;;;;;4.96;89.57;99413.53;187745;1228;77949;-78
2023/02/02 03:55:39;;;;;;;7.70;3.80;;;;;;;5.04;89.19;99396.25;187932;1230;77930;-76
2023/02/02 04:00:13;;;;;;;14.20;2.80;;;;;;;4.99;88.81;99387.09;187784;1231;42985;-76
2023/02/02 04:04:15;;;;;;;5.80;2.80;;;;;;;5.03;88.62;99393.20;187822;1230;42890;-76
2023/02/02 04:08:20;;;;;;;5.30;2.50;;;;;;;5.07;88.50;99399.42;187767;1229;42986;-79
2023/02/02 04:12:22;;;;;;;10.70;2.80;;;;;;;5.06;89.00;99397.18;187931;1230;43061;-77
2023/02/02 04:16:24;;;;;;;5.00;1.80;;;;;;;5.10;88.47;99388.83;187771;1230;57136;-76
2023/02/02 04:21:03;;;;;;;4.60;2.50;;;;;;;5.06;88.18;99383.98;188115;1229;43722;-76
2023/02/02 04:25:05;;;;;;;6.60;2.60;;;;;;;5.07;88.09;99379.34;187834;1229;42928;-77
2023/02/02 04:29:07;;;;;;;7.70;4.60;;;;;;;5.09;88.73;99387.98;188176;1229;43774;-77
2023/02/02 04:33:09;;;;;;;2.90;1.50;;;;;;;5.14;87.59;99383.07;187959;1230;42933;-77
2023/02/02 04:37:54;;;;;;;5.50;2.10;;;;;;;5.16;87.53;99382.01;187885;1230;58127;-77
2023/02/02 04:41:58;;;;;;;6.00;2.80;;;;;;;5.22;87.44;99384.05;187589;1231;79064;-91
2023/02/02 04:46:01;;;;;;;5.50;2.40;;;;;;;5.17;87.43;99393.23;186841;1231;43679;-90
2023/02/02 04:50:07;;;;;;;26.10;4.60;;;;;;;5.21;87.51;99405.61;187142;1229;43626;-91
2023/02/02 04:54:17;;;;;;;10.70;3.50;;;;;;;5.25;87.08;99403.70;187146;1232;43725;-90
2023/02/02 05:11:54;;;;;;;4.40;2.20;;;;;;;5.30;86.79;99413.00;187477;1230;43955;-91
2023/02/02 05:16:10;;;;;;;8.00;3.70;;;;;;;5.26;86.37;99408.94;187116;1231;44022;-91
2023/02/02 05:24:54;;;;;;;8.10;3.30;;;;;;;5.30;86.92;99414.10;187447;1229;44022;-92
2023/02/02 05:42:50;;;;;;;9.60;3.90;;;;;;;5.28;87.47;99438.81;186854;1232;59481;-91
2023/02/02 05:46:53;;;;;;;10.60;2.90;;;;;;;5.25;87.90;99431.31;186778;1232;43590;-90
2023/02/02 05:51:22;;;;;;;7.50;3.10;;;;;;;5.19;89.98;99447.59;186493;1232;43222;-91
2023/02/02 05:55:26;;;;;;;8.50;3.00;;;;;;;5.12;90.90;99443.14;186489;1232;44013;-91
2023/02/02 05:59:29;;;;;;;5.80;3.10;;;;;;;5.10;93.07;99456.27;186539;1232;43858;-91
2023/02/02 06:03:34;;;;;;;8.80;1.80;;;;;;;4.99;94.40;99460.23;186664;1232;59552;-92
2023/02/02 06:07:39;;;;;;;8.20;2.50;;;;;;;4.90;94.66;99457.71;186809;1232;44058;-91
2023/02/02 06:15:56;;;;;;;7.50;4.00;;;;;;;4.86;93.46;99477.66;186877;1231;43839;-91
2023/02/02 06:20:00;;;;;;;6.60;2.40;;;;;;;4.89;92.57;99465.85;186742;1231;43824;-91
2023/02/02 06:24:03;;;;;;;7.20;2.60;;;;;;;4.91;92.63;99494.89;186595;1231;59340;-91
2023/02/02 06:32:40;;;;;;;18.40;3.70;;;;;;;4.90;95.10;99512.66;187323;1231;43918;-92
2023/02/02 06:36:47;;;;;;;;;;;;;;;4.90;96.50;99523.98;187140;1231;43960;-91
2023/02/02 06:40:52;;;;;;;5.80;2.40;;;;;;;4.86;97.37;99517.40;187190;1230;43535;-91
2023/02/02 06:44:58;;;;;;;4.10;1.60;;;;;;;4.81;98.18;99547.58;187143;1231;60370;-91
2023/02/02 06:49:01;;;;;;;6.00;2.90;;;;;;;4.82;99.73;99555.77;187174;1230;43686;-91
2023/02/02 06:53:06;;;;;;;6.50;2.90;;;;;;;4.77;100.00;99564.88;187318;1231;44031;-91
2023/02/02 06:57:10;;;;;;;8.50;2.60;;;;;;;4.69;100.00;99575.30;187029;1231;43684;-92
2023/02/02 07:01:14;;;;;;;9.40;4.70;;;;;;;4.66;100.00;99592.38;187262;1230;43925;-91
2023/02/02 07:05:19;;;;;;;5.20;2.30;;;;;;;4.68;100.00;99579.58;187092;1231;60280;-91
2023/02/02 07:09:21;;;;;;;7.30;2.50;;;;;;;4.63;100.00;99579.21;186987;1231;43725;-91
2023/02/02 07:13:24;;;;;;;5.70;2.80;;;;;;;4.65;100.00;99581.36;186716;1231;43781;-90
2023/02/02 07:17:28;;;;;;;7.90;3.00;;;;;;;4.69;100.00;99596.02;187000;1230;43872;-91
2023/02/02 07:21:34;;;;;;;8.80;3.50;;;;;;;4.69;100.00;99609.53;187031;1230;43656;-91
2023/02/02 07:25:37;;;;;;;;;;;;;;;4.68;100.00;99604.89;187045;1230;60227;-91
2023/02/02 07:29:40;;;;;;;15.00;3.10;;;;;;;4.64;100.00;99627.11;186920;1231;43840;-91
2023/02/02 07:33:44;;;;;;;5.20;2.50;;;;;;;4.61;100.00;99630.23;187046;1230;43987;-90
2023/02/02 07:37:54;;;;;;;10.20;3.30;;;;;;;4.59;100.00;99642.35;187163;1231;43728;-89
2023/02/02 07:41:59;;;;;;;7.10;2.80;;;;;;;4.51;100.00;99645.53;187066;1232;43930;-90
2023/02/02 07:46:06;;;;;;;17.00;3.30;;;;;;;4.52;100.00;99648.42;186965;1231;59292;-90
2023/02/02 07:50:10;;;;;;;6.00;3.90;;;;;;;4.48;100.00;99646.23;186962;1231;43762;-91
2023/02/02 07:54:13;;;;;;;9.00;3.10;;;;;;;4.53;100.00;99664.34;187032;1233;43761;-91
2023/02/02 07:58:16;;;;;;;3.40;1.70;;;;;;;4.61;100.00;99662.61;187125;1230;43801;-91
2023/02/02 08:02:19;;;;;;;6.70;2.90;;;;;;;4.70;100.00;99674.14;186186;1230;862754;-90
2023/02/02 08:06:27;;;;;;;9.20;2.20;;;;;;;4.80;100.00;99669.77;187003;1230;57905;-90
2023/02/02 08:10:30;;;;;;;8.40;3.00;;;;;;;4.85;100.00;99697.84;186844;1231;43939;-91
2023/02/02 08:14:35;;;;;;;5.20;1.90;;;;;;;4.92;100.00;99719.56;186830;1230;43586;-91
2023/02/02 08:18:42;;;;;;;8.60;3.70;;;;;;;4.94;100.00;99729.26;187095;1230;43802;-91
2023/02/02 08:22:45;;;;;;;14.00;4.20;;;;;;;5.02;100.00;99735.77;187172;1230;43937;-90
2023/02/02 08:26:47;;;;;;;13.30;5.40;;;;;;;5.01;100.00;99754.48;187000;1230;57847;-90
2023/02/02 08:30:50;;;;;;;11.50;3.30;;;;;;;4.91;100.00;99772.14;186698;1230;43788;-90
2023/02/02 08:34:53;;;;;;;4.60;2.80;;;;;;;4.79;100.00;99787.91;186958;1233;43678;-90
2023/02/02 08:43:28;;;;;;;6.30;3.80;;;;;;;4.65;100.00;99799.67;186659;1233;43791;-91
2023/02/02 08:47:51;;;;;;;5.10;2.20;;;;;;;4.56;100.00;99809.21;186407;1235;61677;-90
2023/02/02 08:52:13;;;;;;;1.70;1.00;;;;;;;4.44;100.00;99807.66;186527;1233;43942;-90
2023/02/02 08:56:15;;;;;;;3.80;1.90;;;;;;;4.45;100.00;99812.71;186248;1233;43708;-90
2023/02/02 09:00:18;;;;;;;8.10;2.40;;;;;;;4.46;100.00;99816.13;186742;1234;43673;-91
2023/02/02 09:04:22;;;;;;;2.80;1.20;;;;;;;4.53;100.00;99830.08;186333;1232;43658;-91
2023/02/02 09:08:25;;;;;;;7.80;2.60;;;;;;;4.53;100.00;99846.79;186610;1233;60384;-91
2023/02/02 09:12:30;;;;;;;12.20;2.90;;;;;;;4.46;100.00;99841.60;186320;1233;43702;-91
2023/02/02 09:16:34;;;;;;;4.60;1.60;;;;;;;4.46;100.00;99840.70;186382;1232;43872;-91
2023/02/02 09:20:40;;;;;;;5.10;1.90;;;;;;;4.49;100.00;99853.73;186471;1236;43809;-90
2023/02/02 09:24:43;;;;;;;6.70;2.70;;;;;;;4.53;100.00;99871.91;186503;1233;43690;-91
2023/02/02 09:28:49;;;;;;;5.60;3.70;;;;;;;4.61;100.00;99867.70;186412;1233;59499;-90
2023/02/02 09:32:51;;;;;;;6.50;1.40;;;;;;;4.66;100.00;99876.16;186336;1234;44199;-90
2023/02/02 09:36:55;;;;;;;6.60;1.50;;;;;;;4.76;100.00;99884.17;186285;1233;43799;-91
2023/02/02 09:41:00;;;;;;;2.70;1.90;;;;;;;4.77;100.00;99878.14;186576;1232;43791;-90
2023/02/02 09:45:22;;;;;;;4.30;1.60;;;;;;;4.73;100.00;99886.33;186417;1234;43769;-90
2023/02/02 09:49:53;;;;;;;6.90;1.90;;;;;;;4.76;100.00;99889.80;186356;1233;59233;-90
2023/02/02 09:54:00;;;;;;;7.10;2.20;;;;;;;5.04;100.00;99888.34;185113;1241;43852;-89
2023/02/02 09:58:05;;;;;;;7.70;2.10;;;;;;;5.35;100.00;99879.68;185236;1241;43832;-90
2023/02/02 10:02:43;;;;;;;12.90;5.00;;;;;;;5.52;99.93;99877.14;185291;1241;43739;-91
2023/02/02 10:06:53;;;;;;;8.90;2.40;;;;;;;5.61;99.36;99864.20;184422;1247;43828;-90
2023/02/02 10:10:55;;;;;;;6.90;3.70;;;;;;;5.54;98.94;99874.54;184524;1247;57925;-90
2023/02/02 10:15:29;;;;;;;6.50;1.70;;;;;;;5.58;99.90;99893.59;184214;1247;43803;-90
2023/02/02 10:19:33;;;;;;;1.60;1.10;;;;;;;5.58;99.19;99901.00;184475;1247;43833;-90
2023/02/02 10:23:41;;;;;;;8.90;2.30;;;;;;;5.75;100.00;99902.54;184316;1247;43832;-90
2023/02/02 10:28:19;;;;;;;3.30;1.70;;;;;;;5.90;98.69;99900.61;184517;1248;43795;-91
2023/02/02 10:32:27;;;;;;;12.10;2.60;;;;;;;6.03;96.84;99902.06;185310;1241;59314;-91
2023/02/02 10:36:44;;;;;;;5.30;2.10;;;;;;;6.02;93.45;99889.95;185364;1240;43950;-91
2023/02/02 10:41:11;;;;;;;6.00;1.50;;;;;;;6.03;91.02;99891.66;185582;1234;43701;-90
2023/02/02 10:45:20;;;;;;;11.30;3.00;;;;;;;6.09;90.36;99897.91;186506;1232;44020;-91
2023/02/02 10:49:35;;;;;;;6.00;1.30;;;;;;;6.08;91.58;99902.95;186445;1232;43749;-91
2023/02/02 10:53:38;;;;;;;11.00;2.40;;;;;;;6.06;92.82;99903.23;186428;1234;58368;-91
2023/02/02 10:58:05;;;;;;;5.60;1.20;;;;;;;6.18;94.62;99896.08;186394;1233;43795;-91
2023/02/02 11:02:11;;;;;;;14.70;2.60;;;;;;;6.21;92.57;99900.83;186631;1232;43785;-88
2023/02/02 11:10:46;;;;;;;8.30;1.80;;;;;;;6.20;92.48;99922.02;186472;1234;43807;-91
2023/02/02 11:14:55;;;;;;;4.80;1.70;;;;;;;6.33;93.84;99922.21;186451;1233;58353;-91
2023/02/02 11:18:59;;;;;;;7.30;1.60;;;;;;;6.45;92.30;99920.30;186598;1233;43999;-91
2023/02/02 11:23:04;;;;;;;1.70;1.20;;;;;;;6.41;89.34;99936.09;186562;1233;43661;-91
2023/02/02 11:27:30;;;;;;;7.00;2.70;;;;;;;6.54;91.14;99943.59;186484;1234;43882;-91
2023/02/02 11:31:36;;;;;;;4.40;1.90;;;;;;;6.71;89.28;99929.41;186566;1232;43717;-91
2023/02/02 11:35:57;;;;;;;2.50;1.50;;;;;;;6.44;87.53;99940.29;186484;1232;57753;-91
2023/02/02 11:40:30;;;;;;;5.40;1.60;;;;;;;6.36;87.87;99948.04;186592;1234;43709;-90
2023/02/02 11:44:37;;;;;;;4.60;1.50;;;;;;;6.18;87.28;99947.84;186716;1232;43685;-91
2023/02/02 11:48:54;;;;;;;2.90;2.00;;;;;;;6.03;86.84;99952.39;186461;1233;44076;-91
2023/02/02 11:52:58;;;;;;;4.40;2.00;;;;;;;6.02;86.94;99957.56;186474;1232;43794;-91
2023/02/02 11:57:08;;;;;;;10.20;2.20;;;;;;;6.04;85.88;99960.27;186358;1232;59054;-91
2023/02/02 12:01:28;;;;;;;3.90;1.40;;;;;;;6.06;83.36;99963.61;186373;1232;43692;-91
2023/02/02 12:05:35;;;;;;;3.00;1.20;;;;;;;6.14;81.36;99971.55;186388;1234;43673;-90
2023/02/02 12:09:37;;;;;;;1.80;0.90;;;;;;;6.22;76.27;99967.67;186401;1236;43731;-90
2023/02/02 12:14:11;;;;;;;4.40;1.40;;;;;;;6.26;74.59;99968.30;186441;1233;43855;-91
2023/02/02 12:18:32;;;;;;;2.40;1.10;;;;;;;6.20;72.11;99955.86;186544;1233;57873;-91
2023/02/02 12:23:01;;;;;;;9.20;2.50;;;;;;;6.22;71.95;99971.05;186544;1233;43913;-90
2023/02/02 12:27:06;;;;;;;7.10;3.70;;;;;;;6.27;71.85;99984.08;186581;1233;43704;-91
2023/02/02 12:31:27;;;;;;;55.90;20.30;;;;;;;6.39;71.64;99987.47;186510;1233;43774;-90
2023/02/02 12:35:57;;;;;;;6.00;1.80;;;;;;;6.60;71.25;100000.10;186379;1233;44019;-90
2023/02/02 12:40:29;;;;;;;8.00;2.60;;;;;;;6.65;69.63;100003.43;186610;1234;58104;-91
2023/02/02 12:45:17;;;;;;;5.40;2.70;;;;;;;6.63;66.68;100013.31;186601;1232;43710;-90
2023/02/02 12:49:26;;;;;;;15.50;5.70;;;;;;;6.72;67.66;100020.81;185065;1242;44126;-91
2023/02/02 12:53:31;;;;;;;12.40;2.20;;;;;;;6.65;69.42;100022.17;185005;1242;43920;-90
2023/02/02 12:58:05;;;;;;;4.20;1.50;;;;;;;6.53;70.02;100021.04;185135;1242;43833;-90
2023/02/02 13:02:23;;;;;;;7.70;2.20;;;;;;;6.39;68.30;100039.06;184882;1242;59307;-91
2023/02/02 13:06:42;;;;;;;;;;;;;;;6.39;69.30;100040.66;185032;1242;44071;-90
2023/02/02 13:10:53;;;;;;;8.30;2.50;;;;;;;6.37;70.00;100042.88;184969;1242;43495;-91
2023/02/02 13:15:06;;;;;;;7.90;1.30;;;;;;;6.36;70.78;100042.42;184928;1242;43973;-89
2023/02/02 13:19:23;;;;;;;15.60;2.90;;;;;;;6.31;70.92;100054.05;184999;1242;43851;-90
2023/02/02 13:23:53;;;;;;;6.30;2.40;;;;;;;6.29;72.19;100062.30;184905;1242;59572;-90
2023/02/02 13:27:59;;;;;;;24.80;10.70;;;;;;;6.31;74.37;100067.30;186340;1232;43954;-89
2023/02/02 13:32:28;;;;;;;10.70;4.30;;;;;;;6.27;76.27;100076.52;186416;1234;43806;-89
2023/02/02 13:36:36;;;;;;;10.30;3.40;;;;;;;6.15;76.18;100078.21;186341;1232;43832;-89
2023/02/02 13:40:41;;;;;;;6.70;2.90;;;;;;;6.03;76.73;100068.91;186502;1233;43838;-89
2023/02/02 13:44:53;;;;;;;165.20;69.00;;;;;;;5.92;79.23;100084.58;186328;1234;59464;-89
2023/02/02 13:49:02;;;;;;;52.30;22.50;;;;;;;5.99;79.70;100094.14;186508;1236;44037;-89
2023/02/02 13:53:32;;;;;;;68.20;36.90;;;;;;;6.14;80.80;100094.84;186537;1233;43837;-90
2023/02/02 13:58:09;;;;;;;18.20;7.50;;;;;;;6.42;80.98;100094.86;186342;1232;44005;-89
2023/02/02 14:02:29;;;;;;;12.00;3.10;;;;;;;6.56;79.39;100102.98;186251;1233;43659;-86
2023/02/02 14:06:52;;;;;;;11.60;5.20;;;;;;;6.39;80.63;100114.27;186230;1233;59482;-87
2023/02/02 14:10:54;;;;;;;33.70;8.80;;;;;;;6.30;79.99;100121.19;186086;1232;43733;-87
2023/02/02 14:14:56;;;;;;;30.90;9.70;;;;;;;6.26;79.22;100137.16;186388;1233;43651;-86
2023/02/02 14:19:00;;;;;;;29.70;11.40;;;;;;;6.31;80.72;100142.09;186046;1234;44006;-87
2023/02/02 14:23:22;;;;;;;9.10;2.10;;;;;;;6.34;81.27;100158.48;186190;1232;43756;-86
2023/02/02 14:27:27;;;;;;;6.20;2.00;;;;;;;6.36;82.32;100173.80;186161;1232;59296;-87
2023/02/02 14:31:50;;;;;;;5.50;2.40;;;;;;;6.24;83.75;100187.80;186295;1233;43742;-87
2023/02/02 14:35:57;;;;;;;8.80;2.60;;;;;;;6.04;85.59;100194.73;186011;1234;43810;-87
2023/02/02 14:40:05;;;;;;;6.70;2.50;;;;;;;5.88;86.59;100199.95;186032;1233;44139;-87
2023/02/02 14:44:08;;;;;;;10.00;3.00;;;;;;;5.63;87.42;100204.87;186192;1233;43818;-88
2023/02/02 14:48:14;;;;;;;8.30;3.40;;;;;;;5.52;89.29;100222.73;186055;1234;59457;-88
2023/02/02 14:52:22;;;;;;;17.80;2.40;;;;;;;5.31;91.54;100240.89;186207;1232;43803;-87
2023/02/02 14:56:48;;;;;;;5.10;1.30;;;;;;;5.01;93.42;100253.20;186143;1234;43615;-87
2023/02/02 15:01:04;;;;;;;7.30;1.90;;;;;;;4.95;95.10;100267.09;186263;1232;43925;-87
2023/02/02 15:05:28;;;;;;;7.00;2.00;;;;;;;4.78;93.66;100261.95;186187;1234;43804;-87
2023/02/02 15:09:35;;;;;;;3.70;3.30;;;;;;;4.73;93.50;100272.42;186172;1234;57839;-87
2023/02/02 15:13:38;;;;;;;5.50;1.90;;;;;;;4.65;92.36;100281.81;186046;1235;43954;-87
2023/02/02 15:17:40;;;;;;;2.70;1.50;;;;;;;4.58;90.64;100292.40;186204;1232;43838;-86
2023/02/02 15:21:47;;;;;;;7.10;1.50;;;;;;;4.47;89.68;100294.95;186571;1232;43878;-90
2023/02/02 15:25:56;;;;;;;16.80;4.00;;;;;;;4.37;90.67;100310.05;186187;1232;44000;-90
2023/02/02 15:30:06;;;;;;;12.70;6.00;;;;;;;4.18;91.75;100325.88;186149;1232;60474;-90
2023/02/02 15:34:16;;;;;;;8.80;4.50;;;;;;;4.10;92.48;100327.36;186278;1234;43649;-90
2023/02/02 15:38:20;;;;;;;3.90;3.30;;;;;;;3.97;93.03;100346.12;186255;1232;43630;-90
2023/02/02 15:42:53;;;;;;;6.20;4.20;;;;;;;3.87;93.29;100355.26;186341;1234;43654;-90
2023/02/02 15:46:57;;;;;;;4.40;1.70;;;;;;;3.70;92.90;100369.98;186503;1233;43749;-90
2023/02/02 15:51:03;;;;;;;3.90;2.50;;;;;;;3.66;92.00;100386.67;186672;1233;59424;-91
2023/02/02 15:55:18;;;;;;;4.60;2.70;;;;;;;3.65;91.62;100392.33;186282;1233;43704;-91
2023/02/02 15:59:26;;;;;;;4.00;2.10;;;;;;;3.63;90.22;100405.20;186470;1234;43752;-90
2023/02/02 16:03:37;;;;;;;3.90;2.00;;;;;;;3.58;89.41;100420.89;186209;1234;44083;-90
2023/02/02 16:07:40;;;;;;;4.40;2.00;;;;;;;3.56;87.97;100433.11;186295;1233;43718;-90
2023/02/02 16:11:44;;;;;;;8.50;1.50;;;;;;;3.55;86.34;100446.10;186474;1233;59126;-90
2023/02/02 16:15:57;;;;;;;3.90;2.10;;;;;;;3.53;85.47;100457.45;186266;1233;43754;-90
2023/02/02 16:20:07;;;;;;;2.80;1.30;;;;;;;3.52;85.01;100474.86;186195;1233;43724;-90
2023/02/02 16:24:26;;;;;;;3.80;1.70;;;;;;;3.41;85.76;100484.85;186254;1233;43988;-90
2023/02/02 16:28:29;;;;;;;5.00;2.60;;;;;;;3.40;86.51;100496.50;186434;1233;43982;-90
2023/02/02 16:32:37;;;;;;;2.50;1.50;;;;;;;3.29;86.71;100505.27;186222;1232;59496;-90
2023/02/02 16:36:40;;;;;;;4.40;1.50;;;;;;;3.23;86.69;100523.91;186202;1236;43660;-90
2023/02/02 16:40:42;;;;;;;6.00;2.20;;;;;;;3.22;86.45;100529.77;186243;1233;43789;-90
2023/02/02 16:44:44;;;;;;;7.10;2.80;;;;;;;3.19;85.92;100547.95;186402;1233;43776;-90
2023/02/02 16:49:00;;;;;;;5.80;2.20;;;;;;;3.16;86.12;100563.86;186225;1235;44104;-90
2023/02/02 16:53:04;;;;;;;5.10;2.60;;;;;;;3.10;87.23;100574.64;186502;1233;59624;-88
2023/02/02 16:57:13;;;;;;;3.80;2.40;;;;;;;3.09;86.94;100583.63;186267;1233;44035;-90
2023/02/02 17:01:15;;;;;;;7.20;5.20;;;;;;;3.09;87.19;100594.85;186277;1234;43688;-90
2023/02/02 17:05:29;;;;;;;8.30;3.00;;;;;;;3.12;87.11;100611.72;186242;1232;43821;-90
2023/02/02 17:09:40;;;;;;;3.20;2.90;;;;;;;3.12;87.73;100624.17;186501;1232;43948;-91
2023/02/02 17:13:42;;;;;;;3.40;2.10;;;;;;;3.12;88.41;100625.58;186289;1234;57962;-90
2023/02/02 17:17:48;;;;;;;8.30;3.30;;;;;;;2.97;88.53;100638.30;186299;1233;43617;-90
2023/02/02 17:21:50;;;;;;;3.90;2.70;;;;;;;2.85;87.96;100650.41;186218;1234;43584;-89
2023/02/02 17:25:56;;;;;;;2.90;1.90;;;;;;;2.76;87.81;100659.56;186298;1233;43965;-90
2023/02/02 17:30:03;;;;;;;9.00;2.50;;;;;;;2.61;88.26;100672.81;186539;1233;43759;-87
2023/02/02 17:34:15;;;;;;;4.00;2.40;;;;;;;2.42;88.84;100684.44;187094;1231;77254;-76
2023/02/02 17:38:20;;;;;;;2.90;2.60;;;;;;;2.21;88.88;100697.70;187503;1230;43404;-74
2023/02/02 17:42:29;;;;;;;3.40;2.60;;;;;;;2.02;87.93;100708.06;187566;1231;43320;-75
2023/02/02 17:46:31;;;;;;;3.50;2.40;;;;;;;2.08;86.23;100719.36;187811;1230;42996;-76
2023/02/02 17:50:35;;;;;;;4.40;2.00;;;;;;;2.16;84.45;100726.77;187830;1230;43738;-75
2023/02/02 17:54:38;;;;;;;6.80;4.80;;;;;;;2.19;83.55;100731.23;187818;1231;59015;-75
2023/02/02 17:58:39;;;;;;;4.50;3.40;;;;;;;2.18;81.63;100742.09;187601;1231;43638;-75
2023/02/02 18:03:05;;;;;;;8.70;4.20;;;;;;;2.20;80.93;100744.11;187521;1231;43018;-75
2023/02/02 18:07:07;;;;;;;13.60;10.60;;;;;;;2.20;80.83;100748.66;187743;1230;43075;-76
2023/02/02 18:11:22;;;;;;;9.60;6.40;;;;;;;2.21;80.42;100754.23;187755;1230;43027;-75
2023/02/02 18:15:23;;;;;;;21.70;17.20;;;;;;;2.20;80.35;100758.13;187766;1230;58046;-74
2023/02/02 18:19:32;;;;;;;13.30;11.10;;;;;;;2.15;80.03;100761.98;187518;1230;43613;-74
2023/02/02 18:23:34;;;;;;;12.50;3.80;;;;;;;2.13;79.40;100767.11;187494;1231;43042;-75
2023/02/02 18:27:36;;;;;;;5.20;3.90;;;;;;;2.08;79.39;100771.16;187422;1230;43122;-76
2023/02/02 18:31:42;;;;;;;34.80;14.70;;;;;;;2.10;79.05;100784.04;187618;1230;43393;-74
2023/02/02 18:35:46;;;;;;;10.40;6.90;;;;;;;1.98;80.68;100787.13;187543;1230;58264;-74
2023/02/02 18:39:47;;;;;;;11.20;3.90;;;;;;;1.85;82.28;100798.27;187554;1231;43603;-75
2023/02/02 18:43:59;;;;;;;10.80;6.20;;;;;;;1.70;83.78;100808.59;187391;1230;42974;-73
2023/02/02 18:48:01;;;;;;;9.00;5.20;;;;;;;1.67;84.49;100822.89;187694;1230;43081;-74
2023/02/02 18:52:05;;;;;;;7.30;4.30;;;;;;;1.65;83.89;100827.50;187781;1231;43295;-74
2023/02/02 18:56:09;;;;;;;7.70;3.70;;;;;;;1.70;82.89;100830.29;187767;1230;57261;-75
2023/02/02 19:00:11;;;;;;;8.40;4.10;;;;;;;1.69;83.56;100835.41;187517;1230;42998;-76
2023/02/02 19:04:15;;;;;;;4.20;3.20;;;;;;;1.63;84.71;100840.88;187708;1231;43571;-75
2023/02/02 19:08:17;;;;;;;6.70;4.60;;;;;;;1.58;85.01;100839.14;187484;1230;43665;-76
2023/02/02 19:12:18;;;;;;;13.90;4.00;;;;;;;1.57;84.11;100839.49;187496;1230;43048;-76
2023/02/02 19:16:24;;;;;;;4.80;3.00;;;;;;;1.61;83.52;100843.73;187747;1232;58067;-75
2023/02/02 19:20:28;;;;;;;6.20;4.60;;;;;;;1.61;83.71;100859.13;187553;1234;43075;-75
2023/02/02 19:29:34;;;;;;;266.20;105.90;;;;;;;1.48;85.41;100876.16;187642;1231;43298;-75
2023/02/02 19:33:44;;;;;;;55.70;25.20;;;;;;;1.45;85.34;100883.44;187420;1230;43682;-76
2023/02/02 19:37:47;;;;;;;15.70;7.70;;;;;;;1.41;86.65;100890.73;187430;1230;57606;-74
2023/02/02 19:41:52;;;;;;;5.50;3.30;;;;;;;1.35;87.72;100894.77;187587;1230;43050;-76
2023/02/02 19:46:15;;;;;;;11.10;6.20;;;;;;;1.19;89.29;100904.41;187660;1230;43022;-76
2023/02/02 19:50:26;;;;;;;14.50;7.60;;;;;;;1.14;89.89;100912.77;187588;1231;43051;-74
2023/02/02 19:54:35;;;;;;;16.00;8.80;;;;;;;0.98;92.02;100923.05;187566;1230;43702;-76
2023/02/02 19:58:37;;;;;;;17.90;7.20;;;;;;;0.88;93.15;100925.98;187560;1230;58105;-74
2023/02/02 20:02:59;;;;;;;16.10;9.10;;;;;;;0.80;94.02;100927.29;187558;1230;253069;-76
2023/02/02 20:07:11;;;;;;;11.60;6.80;;;;;;;0.79;94.64;100929.25;187641;1230;43040;-74
2023/02/02 20:11:34;;;;;;;8.60;6.30;;;;;;;0.69;95.86;100932.48;187728;1231;45084;-74
2023/02/02 20:15:38;;;;;;;12.30;6.90;;;;;;;0.65;96.42;100931.23;187542;1231;42992;-74
2023/02/02 20:20:30;;;;;;;29.80;8.00;;;;;;;0.58;96.47;100934.73;187681;1230;58745;-75
2023/02/02 20:24:36;;;;;;;8.80;4.60;;;;;;;0.50;97.38;100948.42;187732;1230;43709;-74
2023/02/02 20:28:50;;;;;;;11.70;5.70;;;;;;;0.44;98.24;100949.96;187497;1230;42963;-76
2023/02/02 20:32:57;;;;;;;13.80;7.70;;;;;;;0.40;98.73;100957.23;187541;1231;43018;-75
2023/02/02 20:37:28;;;;;;;10.40;5.70;;;;;;;0.36;99.48;100963.29;187491;1230;43028;-75
2023/02/02 20:41:29;;;;;;;9.70;6.30;;;;;;;0.29;100.00;100970.46;187523;1230;57805;-75
2023/02/02 20:45:31;;;;;;;16.10;8.50;;;;;;;0.33;99.85;100975.05;187692;1230;42994;-73
2023/02/02 20:49:34;;;;;;;14.90;8.00;;;;;;;0.34;99.98;100978.20;187528;1230;43589;-75
2023/02/02 20:53:39;;;;;;;19.00;10.00;;;;;;;0.36;99.91;100980.02;187446;1231;43451;-77
2023/02/02 20:57:41;;;;;;;18.40;9.70;;;;;;;0.36;99.85;100979.01;187567;1231;44138;-75
2023/02/02 21:01:43;;;;;;;25.80;12.60;;;;;;;0.38;99.30;100982.08;187700;1230;58254;-74
2023/02/02 21:05:44;;;;;;;20.40;10.20;;;;;;;0.47;97.89;100984.80;187486;1231;42987;-74
2023/02/02 21:09:48;;;;;;;19.40;11.60;;;;;;;0.53;96.00;100988.81;187447;1230;43637;-74
2023/02/02 21:13:49;;;;;;;25.80;13.00;;;;;;;0.61;95.45;100987.89;187544;1231;43708;-74